Check out our new PWSWeather beta!
PWSweather.com
Personal Weather Stations
Station Observations
ISYDDANM23
Felsted, AabenraaDK 6200

FelstedAabenraaDK 6200

Lat: 54.977066, Lon: 9.507192

Elevation: 135

Station Type: Davis Vantage Pro 2 Plus 24H

http://www.valkaer.dk

High Low Average
Temperature 53.2°F11.8°C 49.5°F9.7°C 51.5°F10.8°C
Dew Point 50.4°F10.2°C 40.9°F4.9°C 47.1°F8.4°C
Winds 11.5 mph 18.5 kmh Calm Calm 5.0 mph E8.0 kmh E
Wind Gusts 17.3 mph27.8 kmh -- 8.0 mph12.9 kmh
Humidity 93% 65% 85%
Pressure 30.04 in1017.3 mb 29.84 in1010.5 mb -
Precipitation 0.04 in1.0 mm - -
Hour Temp Dew Point Humidity Winds Wind Gusts Pressure Precip Precip Rate Daily Precip Total
12:00 AM 51.5°F10.8°C 40.9°F4.9°C 67% Calm Calm -- 30.04 in1017.3 mb - 0.00 in0.0 mm 0.00 in0.0 mm
12:10 AM 51.5°F10.8°C 41.6°F5.3°C 69% Calm Calm -- 30.04 in1017.3 mb - 0.00 in0.0 mm 0.00 in0.0 mm
12:15 AM 51.3°F10.7°C 41.8°F5.4°C 70% Calm Calm 2.3 mph3.7 kmh 30.03 in1016.9 mb - 0.00 in0.0 mm 0.00 in0.0 mm
12:20 AM 51.2°F10.7°C 42.5°F5.8°C 72% Calm Calm 1.2 mph1.9 kmh 30.03 in1016.9 mb - 0.00 in0.0 mm 0.00 in0.0 mm
12:25 AM 51.3°F10.7°C 42.6°F5.9°C 72% 1.2 mph ENE1.9 kmh ENE 2.3 mph3.7 kmh 30.03 in1016.9 mb - 0.00 in0.0 mm 0.00 in0.0 mm
12:30 AM 51.5°F10.8°C 43.1°F6.2°C 73% Calm Calm 2.3 mph3.7 kmh 30.03 in1016.9 mb - 0.00 in0.0 mm 0.00 in0.0 mm
12:35 AM 51.4°F10.8°C 43.0°F6.1°C 73% 1.2 mph ENE1.9 kmh ENE 1.2 mph1.9 kmh 30.03 in1016.9 mb - 0.00 in0.0 mm 0.00 in0.0 mm
12:40 AM 51.7°F10.9°C 43.3°F6.3°C 73% 1.2 mph ENE1.9 kmh ENE 2.3 mph3.7 kmh 30.02 in1016.6 mb - 0.00 in0.0 mm 0.00 in0.0 mm
12:45 AM 51.8°F11.0°C 43.4°F6.3°C 73% 3.5 mph NE5.6 kmh NE 3.5 mph5.6 kmh 30.02 in1016.6 mb - 0.00 in0.0 mm 0.00 in0.0 mm
12:50 AM 52.2°F11.2°C 42.0°F5.6°C 68% 4.6 mph NE7.4 kmh NE 8.1 mph13.0 kmh 30.02 in1016.6 mb - 0.00 in0.0 mm 0.00 in0.0 mm
12:55 AM 52.9°F11.6°C 41.4°F5.2°C 65% 5.8 mph ENE9.3 kmh ENE 6.9 mph11.1 kmh 30.02 in1016.6 mb - 0.00 in0.0 mm 0.00 in0.0 mm
01:00 AM 52.9°F11.6°C 41.8°F5.4°C 66% 4.6 mph ENE7.4 kmh ENE 8.1 mph13.0 kmh 30.02 in1016.6 mb - 0.00 in0.0 mm 0.00 in0.0 mm
01:10 AM 52.4°F11.3°C 41.8°F5.4°C 67% 4.6 mph NE7.4 kmh NE 5.8 mph9.3 kmh 30.02 in1016.6 mb - 0.00 in0.0 mm 0.00 in0.0 mm
01:15 AM 52.2°F11.2°C 42.0°F5.6°C 68% 1.2 mph ENE1.9 kmh ENE 3.5 mph5.6 kmh 30.01 in1016.3 mb - 0.00 in0.0 mm 0.00 in0.0 mm
01:20 AM 52.0°F11.1°C 42.2°F5.7°C 69% 3.5 mph ENE5.6 kmh ENE 4.6 mph7.4 kmh 30.01 in1016.3 mb - 0.00 in0.0 mm 0.00 in0.0 mm
01:25 AM 51.9°F11.1°C 42.0°F5.6°C 69% 3.5 mph NE5.6 kmh NE 4.6 mph7.4 kmh 30.01 in1016.3 mb - 0.00 in0.0 mm 0.00 in0.0 mm
01:30 AM 52.0°F11.1°C 42.2°F5.7°C 69% 3.5 mph ENE5.6 kmh ENE 8.1 mph13.0 kmh 30.00 in1015.9 mb - 0.00 in0.0 mm 0.00 in0.0 mm
01:35 AM 52.2°F11.2°C 42.0°F5.6°C 68% 3.5 mph ENE5.6 kmh ENE 8.1 mph13.0 kmh 30.00 in1015.9 mb - 0.00 in0.0 mm 0.00 in0.0 mm
01:40 AM 52.3°F11.3°C 42.0°F5.6°C 68% 2.3 mph ENE3.7 kmh ENE 6.9 mph11.1 kmh 30.00 in1015.9 mb - 0.00 in0.0 mm 0.00 in0.0 mm
01:45 AM 52.4°F11.3°C 42.1°F5.6°C 68% 3.5 mph ENE5.6 kmh ENE 3.5 mph5.6 kmh 30.00 in1015.9 mb - 0.00 in0.0 mm 0.00 in0.0 mm
01:50 AM 52.4°F11.3°C 42.2°F5.7°C 68% 5.8 mph ENE9.3 kmh ENE 9.2 mph14.8 kmh 30.00 in1015.9 mb - 0.00 in0.0 mm 0.00 in0.0 mm
01:55 AM 52.6°F11.4°C 41.9°F5.5°C 67% 10.4 mph E16.7 kmh E 17.3 mph27.8 kmh 30.00 in1015.9 mb - 0.00 in0.0 mm 0.00 in0.0 mm
02:00 AM 52.5°F11.4°C 43.0°F6.1°C 70% 11.5 mph E18.5 kmh E 15.0 mph24.1 kmh 30.00 in1015.9 mb - 0.00 in0.0 mm 0.00 in0.0 mm
02:10 AM 50.2°F10.1°C 44.2°F6.8°C 80% 6.9 mph ENE11.1 kmh ENE 9.2 mph14.8 kmh 30.00 in1015.9 mb - 0.00 in0.0 mm 0.00 in0.0 mm
02:15 AM 49.7°F9.8°C 44.4°F6.9°C 82% 6.9 mph NE11.1 kmh NE 11.5 mph18.5 kmh 29.99 in1015.6 mb - 0.00 in0.0 mm 0.00 in0.0 mm
02:20 AM 49.6°F9.8°C 44.0°F6.7°C 81% 8.1 mph NE13.0 kmh NE 11.5 mph18.5 kmh 29.99 in1015.6 mb - 0.01 in0.3 mm 0.01 in0.3 mm
02:25 AM 49.6°F9.8°C 44.3°F6.8°C 82% 4.6 mph NE7.4 kmh NE 9.2 mph14.8 kmh 29.99 in1015.6 mb - 0.01 in0.3 mm 0.01 in0.3 mm
02:30 AM 49.5°F9.7°C 44.6°F7.0°C 83% 3.5 mph NE5.6 kmh NE 10.4 mph16.7 kmh 29.99 in1015.6 mb - 0.01 in0.3 mm 0.01 in0.3 mm
02:35 AM 49.5°F9.7°C 44.2°F6.8°C 82% 5.8 mph NE9.3 kmh NE 12.7 mph20.4 kmh 29.98 in1015.2 mb - 0.01 in0.3 mm 0.01 in0.3 mm
02:40 AM 49.7°F9.8°C 43.8°F6.6°C 80% 6.9 mph NE11.1 kmh NE 8.1 mph13.0 kmh 29.98 in1015.2 mb - 0.02 in0.5 mm 0.02 in0.5 mm
02:45 AM 49.9°F9.9°C 43.9°F6.6°C 80% 5.8 mph NNE9.3 kmh NNE 10.4 mph16.7 kmh 29.98 in1015.2 mb - 0.02 in0.5 mm 0.02 in0.5 mm
02:50 AM 49.9°F9.9°C 44.0°F6.7°C 80% 4.6 mph NE7.4 kmh NE 6.9 mph11.1 kmh 29.98 in1015.2 mb - 0.02 in0.5 mm 0.02 in0.5 mm
02:55 AM 49.8°F9.9°C 43.9°F6.6°C 80% 3.5 mph NE5.6 kmh NE 6.9 mph11.1 kmh 29.98 in1015.2 mb - 0.02 in0.5 mm 0.02 in0.5 mm
03:00 AM 49.7°F9.8°C 43.8°F6.6°C 80% 4.6 mph NE7.4 kmh NE 8.1 mph13.0 kmh 29.97 in1014.9 mb - 0.02 in0.5 mm 0.02 in0.5 mm
03:10 AM 49.8°F9.9°C 43.9°F6.6°C 80% 3.5 mph NE5.6 kmh NE 3.5 mph5.6 kmh 29.97 in1014.9 mb - 0.02 in0.5 mm 0.02 in0.5 mm
03:15 AM 50.0°F10.0°C 43.7°F6.5°C 79% 4.6 mph NE7.4 kmh NE 10.4 mph16.7 kmh 29.97 in1014.9 mb - 0.02 in0.5 mm 0.02 in0.5 mm
03:20 AM 50.1°F10.1°C 43.5°F6.4°C 78% 2.3 mph NE3.7 kmh NE 5.8 mph9.3 kmh 29.97 in1014.9 mb - 0.01 in0.3 mm 0.02 in0.5 mm
03:25 AM 50.4°F10.2°C 43.5°F6.4°C 77% 5.8 mph NE9.3 kmh NE 10.4 mph16.7 kmh 29.97 in1014.9 mb - 0.01 in0.3 mm 0.02 in0.5 mm
03:30 AM 50.6°F10.3°C 43.7°F6.5°C 77% 5.8 mph ENE9.3 kmh ENE 11.5 mph18.5 kmh 29.96 in1014.6 mb - 0.01 in0.3 mm 0.02 in0.5 mm
03:35 AM 50.7°F10.4°C 43.4°F6.3°C 76% 4.6 mph ENE7.4 kmh ENE 6.9 mph11.1 kmh 29.97 in1014.9 mb - 0.01 in0.3 mm 0.02 in0.5 mm
03:40 AM 50.7°F10.4°C 43.4°F6.3°C 76% 2.3 mph NE3.7 kmh NE 4.6 mph7.4 kmh 29.96 in1014.6 mb - 0.00 in0.0 mm 0.02 in0.5 mm
03:45 AM 50.7°F10.4°C 43.1°F6.2°C 75% 6.9 mph NE11.1 kmh NE 11.5 mph18.5 kmh 29.96 in1014.6 mb - 0.00 in0.0 mm 0.02 in0.5 mm
03:50 AM 50.8°F10.4°C 43.2°F6.2°C 75% 2.3 mph ENE3.7 kmh ENE 8.1 mph13.0 kmh 29.96 in1014.6 mb - 0.00 in0.0 mm 0.02 in0.5 mm
03:55 AM 50.9°F10.5°C 43.3°F6.3°C 75% 2.3 mph NE3.7 kmh NE 3.5 mph5.6 kmh 29.96 in1014.6 mb - 0.00 in0.0 mm 0.02 in0.5 mm
04:00 AM 50.9°F10.5°C 43.3°F6.3°C 75% 3.5 mph ENE5.6 kmh ENE 6.9 mph11.1 kmh 29.96 in1014.6 mb - 0.00 in0.0 mm 0.02 in0.5 mm
04:10 AM 50.9°F10.5°C 42.9°F6.1°C 74% 3.5 mph NE5.6 kmh NE 8.1 mph13.0 kmh 29.96 in1014.6 mb - 0.00 in0.0 mm 0.02 in0.5 mm
04:15 AM 50.9°F10.5°C 43.2°F6.2°C 75% 3.5 mph ENE5.6 kmh ENE 8.1 mph13.0 kmh 29.96 in1014.6 mb - 0.00 in0.0 mm 0.02 in0.5 mm
04:20 AM 50.9°F10.5°C 43.3°F6.3°C 75% 3.5 mph NE5.6 kmh NE 4.6 mph7.4 kmh 29.96 in1014.6 mb - 0.00 in0.0 mm 0.02 in0.5 mm
04:25 AM 50.9°F10.5°C 43.2°F6.2°C 75% 5.8 mph ENE9.3 kmh ENE 8.1 mph13.0 kmh 29.95 in1014.2 mb - 0.00 in0.0 mm 0.02 in0.5 mm
04:30 AM 50.8°F10.4°C 43.2°F6.2°C 75% 3.5 mph ENE5.6 kmh ENE 9.2 mph14.8 kmh 29.95 in1014.2 mb - 0.00 in0.0 mm 0.02 in0.5 mm
04:35 AM 50.8°F10.4°C 43.5°F6.4°C 76% 3.5 mph ENE5.6 kmh ENE 4.6 mph7.4 kmh 29.95 in1014.2 mb - 0.00 in0.0 mm 0.02 in0.5 mm
04:40 AM 50.7°F10.4°C 43.4°F6.3°C 76% 3.5 mph ENE5.6 kmh ENE 4.6 mph7.4 kmh 29.95 in1014.2 mb - 0.00 in0.0 mm 0.02 in0.5 mm
04:45 AM 50.7°F10.4°C 43.4°F6.3°C 76% 4.6 mph NE7.4 kmh NE 6.9 mph11.1 kmh 29.95 in1014.2 mb - 0.00 in0.0 mm 0.02 in0.5 mm
04:50 AM 50.7°F10.4°C 43.7°F6.5°C 77% 3.5 mph ENE5.6 kmh ENE 8.1 mph13.0 kmh 29.95 in1014.2 mb - 0.00 in0.0 mm 0.02 in0.5 mm
04:55 AM 50.6°F10.3°C 43.7°F6.5°C 77% 3.5 mph ENE5.6 kmh ENE 4.6 mph7.4 kmh 29.95 in1014.2 mb - 0.00 in0.0 mm 0.02 in0.5 mm
05:00 AM 50.6°F10.3°C 43.7°F6.5°C 77% 3.5 mph NE5.6 kmh NE 3.5 mph5.6 kmh 29.95 in1014.2 mb - 0.00 in0.0 mm 0.02 in0.5 mm
05:10 AM 50.7°F10.4°C 43.8°F6.6°C 77% 3.5 mph ENE5.6 kmh ENE 6.9 mph11.1 kmh 29.95 in1014.2 mb - 0.00 in0.0 mm 0.02 in0.5 mm
05:15 AM 50.8°F10.4°C 43.5°F6.4°C 76% 3.5 mph ENE5.6 kmh ENE 3.5 mph5.6 kmh 29.95 in1014.2 mb - 0.00 in0.0 mm 0.02 in0.5 mm
05:20 AM 50.8°F10.4°C 43.5°F6.4°C 76% 3.5 mph NE5.6 kmh NE 9.2 mph14.8 kmh 29.95 in1014.2 mb - 0.00 in0.0 mm 0.02 in0.5 mm
05:25 AM 50.8°F10.4°C 43.8°F6.6°C 77% 3.5 mph NE5.6 kmh NE 8.1 mph13.0 kmh 29.95 in1014.2 mb - 0.00 in0.0 mm 0.02 in0.5 mm
05:30 AM 50.8°F10.4°C 43.8°F6.6°C 77% 2.3 mph NE3.7 kmh NE 3.5 mph5.6 kmh 29.95 in1014.2 mb - 0.00 in0.0 mm 0.02 in0.5 mm
05:35 AM 50.8°F10.4°C 43.5°F6.4°C 76% 3.5 mph ENE5.6 kmh ENE 4.6 mph7.4 kmh 29.94 in1013.9 mb - 0.00 in0.0 mm 0.02 in0.5 mm
05:40 AM 50.8°F10.4°C 43.8°F6.6°C 77% 2.3 mph NE3.7 kmh NE 3.5 mph5.6 kmh 29.94 in1013.9 mb - 0.00 in0.0 mm 0.02 in0.5 mm
05:45 AM 50.8°F10.4°C 43.9°F6.6°C 77% 4.6 mph ENE7.4 kmh ENE 8.1 mph13.0 kmh 29.94 in1013.9 mb - 0.00 in0.0 mm 0.02 in0.5 mm
05:50 AM 50.8°F10.4°C 43.9°F6.6°C 77% 3.5 mph NE5.6 kmh NE 6.9 mph11.1 kmh 29.94 in1013.9 mb - 0.00 in0.0 mm 0.02 in0.5 mm
05:55 AM 50.8°F10.4°C 43.9°F6.6°C 77% 4.6 mph NE7.4 kmh NE 11.5 mph18.5 kmh 29.94 in1013.9 mb - 0.00 in0.0 mm 0.02 in0.5 mm
06:00 AM 50.8°F10.4°C 43.9°F6.6°C 77% 4.6 mph NE7.4 kmh NE 6.9 mph11.1 kmh 29.94 in1013.9 mb - 0.00 in0.0 mm 0.02 in0.5 mm
06:10 AM 50.9°F10.5°C 44.3°F6.8°C 78% 3.5 mph NE5.6 kmh NE 6.9 mph11.1 kmh 29.94 in1013.9 mb - 0.00 in0.0 mm 0.02 in0.5 mm
06:15 AM 50.9°F10.5°C 44.3°F6.8°C 78% 4.6 mph ENE7.4 kmh ENE 9.2 mph14.8 kmh 29.94 in1013.9 mb - 0.00 in0.0 mm 0.02 in0.5 mm
06:20 AM 51.0°F10.6°C 44.7°F7.1°C 79% 5.8 mph NE9.3 kmh NE 9.2 mph14.8 kmh 29.94 in1013.9 mb - 0.00 in0.0 mm 0.02 in0.5 mm
06:25 AM 51.1°F10.6°C 45.2°F7.3°C 80% 5.8 mph ENE9.3 kmh ENE 11.5 mph18.5 kmh 29.94 in1013.9 mb - 0.00 in0.0 mm 0.02 in0.5 mm
06:30 AM 51.2°F10.7°C 45.2°F7.3°C 80% 6.9 mph ENE11.1 kmh ENE 11.5 mph18.5 kmh 29.94 in1013.9 mb - 0.00 in0.0 mm 0.02 in0.5 mm
06:35 AM 51.3°F10.7°C 45.7°F7.6°C 81% 5.8 mph ENE9.3 kmh ENE 12.7 mph20.4 kmh 29.94 in1013.9 mb - 0.00 in0.0 mm 0.02 in0.5 mm
06:40 AM 51.3°F10.7°C 45.7°F7.6°C 81% 4.6 mph E7.4 kmh E 9.2 mph14.8 kmh 29.94 in1013.9 mb - 0.00 in0.0 mm 0.02 in0.5 mm
06:45 AM 51.4°F10.8°C 45.7°F7.6°C 81% 8.1 mph E13.0 kmh E 11.5 mph18.5 kmh 29.94 in1013.9 mb - 0.00 in0.0 mm 0.02 in0.5 mm
06:50 AM 51.4°F10.8°C 45.8°F7.7°C 81% 4.6 mph E7.4 kmh E 11.5 mph18.5 kmh 29.94 in1013.9 mb - 0.00 in0.0 mm 0.02 in0.5 mm
06:55 AM 51.5°F10.8°C 45.9°F7.7°C 81% 4.6 mph E7.4 kmh E 9.2 mph14.8 kmh 29.94 in1013.9 mb - 0.00 in0.0 mm 0.02 in0.5 mm
07:00 AM 51.5°F10.8°C 45.9°F7.7°C 81% 5.8 mph ENE9.3 kmh ENE 8.1 mph13.0 kmh 29.93 in1013.5 mb - 0.00 in0.0 mm 0.02 in0.5 mm
07:10 AM 51.7°F10.9°C 46.1°F7.8°C 81% 8.1 mph E13.0 kmh E 11.5 mph18.5 kmh 29.94 in1013.9 mb - 0.00 in0.0 mm 0.02 in0.5 mm
07:15 AM 51.7°F10.9°C 46.1°F7.8°C 81% 5.8 mph ENE9.3 kmh ENE 10.4 mph16.7 kmh 29.93 in1013.5 mb - 0.00 in0.0 mm 0.02 in0.5 mm
07:20 AM 51.7°F10.9°C 46.1°F7.8°C 81% 3.5 mph ENE5.6 kmh ENE 4.6 mph7.4 kmh 29.93 in1013.5 mb - 0.00 in0.0 mm 0.02 in0.5 mm
07:25 AM 51.8°F11.0°C 46.2°F7.9°C 81% 3.5 mph ENE5.6 kmh ENE 8.1 mph13.0 kmh 29.93 in1013.5 mb - 0.00 in0.0 mm 0.02 in0.5 mm
07:30 AM 51.8°F11.0°C 46.5°F8.1°C 82% 8.1 mph E13.0 kmh E 13.8 mph22.2 kmh 29.93 in1013.5 mb - 0.00 in0.0 mm 0.02 in0.5 mm
07:35 AM 51.6°F10.9°C 46.3°F7.9°C 82% 5.8 mph E9.3 kmh E 9.2 mph14.8 kmh 29.93 in1013.5 mb - 0.00 in0.0 mm 0.02 in0.5 mm
07:40 AM 51.6°F10.9°C 46.6°F8.1°C 83% 6.9 mph ENE11.1 kmh ENE 10.4 mph16.7 kmh 29.93 in1013.5 mb - 0.00 in0.0 mm 0.02 in0.5 mm
07:45 AM 51.6°F10.9°C 46.9°F8.3°C 84% 6.9 mph ENE11.1 kmh ENE 11.5 mph18.5 kmh 29.93 in1013.5 mb - 0.00 in0.0 mm 0.02 in0.5 mm
07:50 AM 51.5°F10.8°C 46.8°F8.2°C 84% 8.1 mph E13.0 kmh E 9.2 mph14.8 kmh 29.94 in1013.9 mb - 0.00 in0.0 mm 0.02 in0.5 mm
07:55 AM 51.5°F10.8°C 46.8°F8.2°C 84% 5.8 mph E9.3 kmh E 9.2 mph14.8 kmh 29.93 in1013.5 mb - 0.00 in0.0 mm 0.02 in0.5 mm
08:00 AM 51.5°F10.8°C 47.1°F8.4°C 85% 3.5 mph E5.6 kmh E 6.9 mph11.1 kmh 29.94 in1013.9 mb - 0.00 in0.0 mm 0.02 in0.5 mm
08:10 AM 51.5°F10.8°C 47.5°F8.6°C 86% 3.5 mph E5.6 kmh E 10.4 mph16.7 kmh 29.93 in1013.5 mb - 0.00 in0.0 mm 0.02 in0.5 mm
08:15 AM 51.4°F10.8°C 47.4°F8.6°C 86% 5.8 mph E9.3 kmh E 9.2 mph14.8 kmh 29.93 in1013.5 mb - 0.00 in0.0 mm 0.02 in0.5 mm
08:20 AM 51.3°F10.7°C 47.3°F8.5°C 86% 5.8 mph E9.3 kmh E 11.5 mph18.5 kmh 29.93 in1013.5 mb - 0.00 in0.0 mm 0.02 in0.5 mm
08:25 AM 51.3°F10.7°C 47.6°F8.7°C 87% 5.8 mph E9.3 kmh E 8.1 mph13.0 kmh 29.93 in1013.5 mb - 0.00 in0.0 mm 0.02 in0.5 mm
08:30 AM 51.2°F10.7°C 47.5°F8.6°C 87% 5.8 mph E9.3 kmh E 10.4 mph16.7 kmh 29.92 in1013.2 mb - 0.00 in0.0 mm 0.02 in0.5 mm
08:35 AM 51.2°F10.7°C 47.8°F8.8°C 88% 6.9 mph E11.1 kmh E 11.5 mph18.5 kmh 29.92 in1013.2 mb - 0.00 in0.0 mm 0.02 in0.5 mm
08:40 AM 51.2°F10.7°C 47.8°F8.8°C 88% 6.9 mph E11.1 kmh E 11.5 mph18.5 kmh 29.93 in1013.5 mb - 0.00 in0.0 mm 0.02 in0.5 mm
08:45 AM 51.1°F10.6°C 48.0°F8.9°C 89% 6.9 mph E11.1 kmh E 11.5 mph18.5 kmh 29.93 in1013.5 mb - 0.00 in0.0 mm 0.02 in0.5 mm
08:50 AM 51.1°F10.6°C 48.0°F8.9°C 89% 4.6 mph E7.4 kmh E 9.2 mph14.8 kmh 29.93 in1013.5 mb - 0.00 in0.0 mm 0.02 in0.5 mm
08:55 AM 51.1°F10.6°C 48.0°F8.9°C 89% 8.1 mph E13.0 kmh E 11.5 mph18.5 kmh 29.93 in1013.5 mb - 0.00 in0.0 mm 0.02 in0.5 mm
09:00 AM 51.1°F10.6°C 48.0°F8.9°C 89% 4.6 mph ENE7.4 kmh ENE 9.2 mph14.8 kmh 29.93 in1013.5 mb - 0.00 in0.0 mm 0.02 in0.5 mm
09:10 AM 51.1°F10.6°C 48.0°F8.9°C 89% 4.6 mph ENE7.4 kmh ENE 11.5 mph18.5 kmh 29.93 in1013.5 mb - 0.00 in0.0 mm 0.02 in0.5 mm
09:15 AM 51.1°F10.6°C 48.0°F8.9°C 89% 4.6 mph E7.4 kmh E 11.5 mph18.5 kmh 29.93 in1013.5 mb - 0.00 in0.0 mm 0.02 in0.5 mm
09:20 AM 51.1°F10.6°C 48.3°F9.1°C 90% 6.9 mph E11.1 kmh E 15.0 mph24.1 kmh 29.93 in1013.5 mb - 0.00 in0.0 mm 0.02 in0.5 mm
09:25 AM 51.1°F10.6°C 48.2°F9.0°C 90% 5.8 mph E9.3 kmh E 11.5 mph18.5 kmh 29.92 in1013.2 mb - 0.00 in0.0 mm 0.02 in0.5 mm
09:30 AM 51.0°F10.6°C 48.2°F9.0°C 90% 8.1 mph E13.0 kmh E 9.2 mph14.8 kmh 29.92 in1013.2 mb - 0.00 in0.0 mm 0.02 in0.5 mm
09:35 AM 51.0°F10.6°C 48.2°F9.0°C 90% 6.9 mph E11.1 kmh E 13.8 mph22.2 kmh 29.92 in1013.2 mb - 0.00 in0.0 mm 0.02 in0.5 mm
09:40 AM 51.0°F10.6°C 48.2°F9.0°C 90% 8.1 mph E13.0 kmh E 10.4 mph16.7 kmh 29.92 in1013.2 mb - 0.00 in0.0 mm 0.02 in0.5 mm
09:45 AM 50.9°F10.5°C 48.1°F8.9°C 90% 4.6 mph E7.4 kmh E 10.4 mph16.7 kmh 29.92 in1013.2 mb - 0.00 in0.0 mm 0.02 in0.5 mm
09:50 AM 50.9°F10.5°C 48.1°F8.9°C 90% 5.8 mph E9.3 kmh E 10.4 mph16.7 kmh 29.92 in1013.2 mb - 0.00 in0.0 mm 0.02 in0.5 mm
09:55 AM 50.9°F10.5°C 48.4°F9.1°C 91% 4.6 mph ENE7.4 kmh ENE 9.2 mph14.8 kmh 29.92 in1013.2 mb - 0.00 in0.0 mm 0.02 in0.5 mm
10:00 AM 51.0°F10.6°C 48.4°F9.1°C 91% 6.9 mph E11.1 kmh E 11.5 mph18.5 kmh 29.92 in1013.2 mb - 0.00 in0.0 mm 0.02 in0.5 mm
10:10 AM 51.0°F10.6°C 48.4°F9.1°C 91% 3.5 mph E5.6 kmh E 4.6 mph7.4 kmh 29.92 in1013.2 mb - 0.00 in0.0 mm 0.02 in0.5 mm
10:15 AM 51.0°F10.6°C 48.5°F9.2°C 91% 6.9 mph E11.1 kmh E 10.4 mph16.7 kmh 29.91 in1012.9 mb - 0.00 in0.0 mm 0.02 in0.5 mm
10:20 AM 51.0°F10.6°C 48.5°F9.2°C 91% 5.8 mph E9.3 kmh E 11.5 mph18.5 kmh 29.91 in1012.9 mb - 0.00 in0.0 mm 0.02 in0.5 mm
10:25 AM 51.1°F10.6°C 48.5°F9.2°C 91% 5.8 mph E9.3 kmh E 9.2 mph14.8 kmh 29.91 in1012.9 mb - 0.00 in0.0 mm 0.02 in0.5 mm
10:30 AM 51.1°F10.6°C 48.6°F9.2°C 91% 6.9 mph E11.1 kmh E 10.4 mph16.7 kmh 29.91 in1012.9 mb - 0.00 in0.0 mm 0.02 in0.5 mm
10:35 AM 51.1°F10.6°C 48.6°F9.2°C 91% 5.8 mph E9.3 kmh E 6.9 mph11.1 kmh 29.91 in1012.9 mb - 0.00 in0.0 mm 0.02 in0.5 mm
10:40 AM 51.1°F10.6°C 48.6°F9.2°C 91% 4.6 mph ENE7.4 kmh ENE 8.1 mph13.0 kmh 29.91 in1012.9 mb - 0.00 in0.0 mm 0.02 in0.5 mm
10:45 AM 51.2°F10.7°C 48.7°F9.3°C 91% 5.8 mph ENE9.3 kmh ENE 11.5 mph18.5 kmh 29.91 in1012.9 mb - 0.00 in0.0 mm 0.02 in0.5 mm
10:50 AM 51.2°F10.7°C 48.7°F9.3°C 91% 5.8 mph E9.3 kmh E 9.2 mph14.8 kmh 29.91 in1012.9 mb - 0.00 in0.0 mm 0.02 in0.5 mm
10:55 AM 51.3°F10.7°C 48.8°F9.3°C 91% 4.6 mph ENE7.4 kmh ENE 11.5 mph18.5 kmh 29.91 in1012.9 mb - 0.00 in0.0 mm 0.02 in0.5 mm
11:00 AM 51.2°F10.7°C 48.7°F9.3°C 91% 5.8 mph ENE9.3 kmh ENE 9.2 mph14.8 kmh 29.91 in1012.9 mb - 0.00 in0.0 mm 0.02 in0.5 mm
11:10 AM 51.3°F10.7°C 48.7°F9.3°C 91% 8.1 mph E13.0 kmh E 10.4 mph16.7 kmh 29.91 in1012.9 mb - 0.00 in0.0 mm 0.02 in0.5 mm
11:15 AM 51.3°F10.7°C 48.8°F9.3°C 91% 8.1 mph ENE13.0 kmh ENE 11.5 mph18.5 kmh 29.91 in1012.9 mb - 0.00 in0.0 mm 0.02 in0.5 mm
11:20 AM 51.5°F10.8°C 48.9°F9.4°C 91% 4.6 mph E7.4 kmh E 6.9 mph11.1 kmh 29.91 in1012.9 mb - 0.00 in0.0 mm 0.02 in0.5 mm
11:25 AM 51.6°F10.9°C 49.0°F9.4°C 91% 4.6 mph ENE7.4 kmh ENE 8.1 mph13.0 kmh 29.91 in1012.9 mb - 0.00 in0.0 mm 0.02 in0.5 mm
11:30 AM 51.6°F10.9°C 48.7°F9.3°C 90% 5.8 mph ENE9.3 kmh ENE 8.1 mph13.0 kmh 29.91 in1012.9 mb - 0.00 in0.0 mm 0.02 in0.5 mm
11:35 AM 51.6°F10.9°C 48.8°F9.3°C 90% 6.9 mph E11.1 kmh E 11.5 mph18.5 kmh 29.91 in1012.9 mb - 0.00 in0.0 mm 0.02 in0.5 mm
11:40 AM 51.6°F10.9°C 48.8°F9.3°C 90% 8.1 mph E13.0 kmh E 11.5 mph18.5 kmh 29.91 in1012.9 mb - 0.00 in0.0 mm 0.02 in0.5 mm
11:45 AM 51.7°F10.9°C 48.9°F9.4°C 90% 4.6 mph E7.4 kmh E 11.5 mph18.5 kmh 29.91 in1012.9 mb - 0.00 in0.0 mm 0.02 in0.5 mm
11:50 AM 51.7°F10.9°C 48.9°F9.4°C 90% 6.9 mph E11.1 kmh E 11.5 mph18.5 kmh 29.91 in1012.9 mb - 0.00 in0.0 mm 0.02 in0.5 mm
11:55 AM 51.8°F11.0°C 48.9°F9.4°C 90% 4.6 mph E7.4 kmh E 8.1 mph13.0 kmh 29.91 in1012.9 mb - 0.00 in0.0 mm 0.02 in0.5 mm
12:00 PM 51.8°F11.0°C 49.0°F9.4°C 90% 4.6 mph E7.4 kmh E 8.1 mph13.0 kmh 29.91 in1012.9 mb - 0.01 in0.3 mm 0.02 in0.5 mm
12:10 PM 51.9°F11.1°C 49.1°F9.5°C 90% 2.3 mph E3.7 kmh E 6.9 mph11.1 kmh 29.91 in1012.9 mb - 0.02 in0.5 mm 0.03 in0.8 mm
12:15 PM 52.1°F11.2°C 49.3°F9.6°C 90% 4.6 mph ENE7.4 kmh ENE 8.1 mph13.0 kmh 29.91 in1012.9 mb - 0.02 in0.5 mm 0.03 in0.8 mm
12:20 PM 52.2°F11.2°C 49.4°F9.7°C 90% 4.6 mph ENE7.4 kmh ENE 5.8 mph9.3 kmh 29.91 in1012.9 mb - 0.02 in0.5 mm 0.03 in0.8 mm
12:25 PM 52.6°F11.4°C 50.0°F10.0°C 91% 3.5 mph ENE5.6 kmh ENE 9.2 mph14.8 kmh 29.90 in1012.5 mb - 0.02 in0.5 mm 0.03 in0.8 mm
12:30 PM 53.0°F11.7°C 50.4°F10.2°C 91% 3.5 mph ENE5.6 kmh ENE 8.1 mph13.0 kmh 29.90 in1012.5 mb - 0.02 in0.5 mm 0.04 in1.0 mm
12:35 PM 53.0°F11.7°C 50.2°F10.1°C 90% 4.6 mph ENE7.4 kmh ENE 9.2 mph14.8 kmh 29.90 in1012.5 mb - 0.02 in0.5 mm 0.04 in1.0 mm
12:40 PM 53.0°F11.7°C 50.1°F10.1°C 90% 6.9 mph E11.1 kmh E 9.2 mph14.8 kmh 29.90 in1012.5 mb - 0.02 in0.5 mm 0.04 in1.0 mm
12:45 PM 52.7°F11.5°C 49.6°F9.8°C 89% 4.6 mph E7.4 kmh E 9.2 mph14.8 kmh 29.90 in1012.5 mb - 0.02 in0.5 mm 0.04 in1.0 mm
12:50 PM 52.6°F11.4°C 49.4°F9.7°C 89% 6.9 mph E11.1 kmh E 9.2 mph14.8 kmh 29.90 in1012.5 mb - 0.02 in0.5 mm 0.04 in1.0 mm
12:55 PM 52.6°F11.4°C 49.8°F9.9°C 90% 4.6 mph ENE7.4 kmh ENE 6.9 mph11.1 kmh 29.90 in1012.5 mb - 0.02 in0.5 mm 0.04 in1.0 mm
01:00 PM 52.7°F11.5°C 49.8°F9.9°C 90% 3.5 mph E5.6 kmh E 11.5 mph18.5 kmh 29.90 in1012.5 mb - 0.02 in0.5 mm 0.04 in1.0 mm
01:10 PM 52.9°F11.6°C 49.8°F9.9°C 89% 5.8 mph ENE9.3 kmh ENE 8.1 mph13.0 kmh 29.90 in1012.5 mb - 0.01 in0.3 mm 0.04 in1.0 mm
01:15 PM 53.0°F11.7°C 49.8°F9.9°C 89% 5.8 mph ENE9.3 kmh ENE 10.4 mph16.7 kmh 29.90 in1012.5 mb - 0.01 in0.3 mm 0.04 in1.0 mm
01:20 PM 52.9°F11.6°C 49.7°F9.8°C 89% 4.6 mph ENE7.4 kmh ENE 9.2 mph14.8 kmh 29.90 in1012.5 mb - 0.01 in0.3 mm 0.04 in1.0 mm
01:25 PM 52.7°F11.5°C 49.6°F9.8°C 89% 5.8 mph ENE9.3 kmh ENE 9.2 mph14.8 kmh 29.90 in1012.5 mb - 0.01 in0.3 mm 0.04 in1.0 mm
01:30 PM 52.7°F11.5°C 49.6°F9.8°C 89% 4.6 mph ENE7.4 kmh ENE 9.2 mph14.8 kmh 29.90 in1012.5 mb - 0.00 in0.0 mm 0.04 in1.0 mm
01:35 PM 52.8°F11.6°C 49.6°F9.8°C 89% 5.8 mph ENE9.3 kmh ENE 10.4 mph16.7 kmh 29.90 in1012.5 mb - 0.00 in0.0 mm 0.04 in1.0 mm
01:40 PM 52.8°F11.6°C 49.7°F9.8°C 89% 4.6 mph ENE7.4 kmh ENE 6.9 mph11.1 kmh 29.89 in1012.2 mb - 0.00 in0.0 mm 0.04 in1.0 mm
01:45 PM 52.9°F11.6°C 49.8°F9.9°C 89% 4.6 mph NE7.4 kmh NE 6.9 mph11.1 kmh 29.90 in1012.5 mb - 0.00 in0.0 mm 0.04 in1.0 mm
01:50 PM 53.1°F11.7°C 49.9°F9.9°C 89% 2.3 mph NE3.7 kmh NE 4.6 mph7.4 kmh 29.89 in1012.2 mb - 0.00 in0.0 mm 0.04 in1.0 mm
01:55 PM 53.2°F11.8°C 50.0°F10.0°C 89% 3.5 mph E5.6 kmh E 6.9 mph11.1 kmh 29.89 in1012.2 mb - 0.00 in0.0 mm 0.04 in1.0 mm
02:00 PM 53.1°F11.7°C 49.9°F9.9°C 89% 2.3 mph E3.7 kmh E 9.2 mph14.8 kmh 29.89 in1012.2 mb - 0.00 in0.0 mm 0.04 in1.0 mm
02:10 PM 53.2°F11.8°C 50.0°F10.0°C 89% 3.5 mph E5.6 kmh E 10.4 mph16.7 kmh 29.89 in1012.2 mb - 0.00 in0.0 mm 0.04 in1.0 mm
02:15 PM 53.1°F11.7°C 49.6°F9.8°C 88% 6.9 mph ENE11.1 kmh ENE 10.4 mph16.7 kmh 29.89 in1012.2 mb - 0.00 in0.0 mm 0.04 in1.0 mm
02:20 PM 53.0°F11.7°C 49.9°F9.9°C 89% 5.8 mph E9.3 kmh E 10.4 mph16.7 kmh 29.88 in1011.9 mb - 0.00 in0.0 mm 0.04 in1.0 mm
02:25 PM 53.1°F11.7°C 49.6°F9.8°C 88% 4.6 mph E7.4 kmh E 11.5 mph18.5 kmh 29.89 in1012.2 mb - 0.00 in0.0 mm 0.04 in1.0 mm
02:30 PM 53.2°F11.8°C 50.0°F10.0°C 89% 6.9 mph E11.1 kmh E 8.1 mph13.0 kmh 29.89 in1012.2 mb - 0.00 in0.0 mm 0.04 in1.0 mm
02:35 PM 53.1°F11.7°C 49.7°F9.8°C 88% 6.9 mph E11.1 kmh E 11.5 mph18.5 kmh 29.89 in1012.2 mb - 0.00 in0.0 mm 0.04 in1.0 mm
02:40 PM 53.0°F11.7°C 49.6°F9.8°C 88% 3.5 mph ENE5.6 kmh ENE 6.9 mph11.1 kmh 29.89 in1012.2 mb - 0.00 in0.0 mm 0.04 in1.0 mm
02:45 PM 52.9°F11.6°C 49.5°F9.7°C 88% 6.9 mph E11.1 kmh E 9.2 mph14.8 kmh 29.88 in1011.9 mb - 0.00 in0.0 mm 0.04 in1.0 mm
02:50 PM 52.9°F11.6°C 49.4°F9.7°C 88% 6.9 mph E11.1 kmh E 9.2 mph14.8 kmh 29.88 in1011.9 mb - 0.00 in0.0 mm 0.04 in1.0 mm
02:55 PM 53.1°F11.7°C 49.9°F9.9°C 89% 4.6 mph E7.4 kmh E 8.1 mph13.0 kmh 29.88 in1011.9 mb - 0.00 in0.0 mm 0.04 in1.0 mm
03:00 PM 53.2°F11.8°C 49.7°F9.8°C 88% 3.5 mph E5.6 kmh E 10.4 mph16.7 kmh 29.88 in1011.9 mb - 0.00 in0.0 mm 0.04 in1.0 mm
03:10 PM 53.1°F11.7°C 49.6°F9.8°C 88% 5.8 mph E9.3 kmh E 8.1 mph13.0 kmh 29.88 in1011.9 mb - 0.00 in0.0 mm 0.04 in1.0 mm
03:15 PM 53.0°F11.7°C 49.5°F9.7°C 88% 6.9 mph E11.1 kmh E 11.5 mph18.5 kmh 29.88 in1011.9 mb - 0.00 in0.0 mm 0.04 in1.0 mm
03:20 PM 52.8°F11.6°C 49.3°F9.6°C 88% 5.8 mph ENE9.3 kmh ENE 9.2 mph14.8 kmh 29.88 in1011.9 mb - 0.00 in0.0 mm 0.04 in1.0 mm
03:25 PM 52.8°F11.6°C 49.4°F9.7°C 88% 6.9 mph E11.1 kmh E 11.5 mph18.5 kmh 29.88 in1011.9 mb - 0.00 in0.0 mm 0.04 in1.0 mm
03:30 PM 52.9°F11.6°C 49.4°F9.7°C 88% 6.9 mph E11.1 kmh E 11.5 mph18.5 kmh 29.88 in1011.9 mb - 0.00 in0.0 mm 0.04 in1.0 mm
03:35 PM 53.0°F11.7°C 49.5°F9.7°C 88% 5.8 mph E9.3 kmh E 10.4 mph16.7 kmh 29.88 in1011.9 mb - 0.00 in0.0 mm 0.04 in1.0 mm
03:40 PM 52.8°F11.6°C 49.3°F9.6°C 88% 6.9 mph ENE11.1 kmh ENE 11.5 mph18.5 kmh 29.88 in1011.9 mb - 0.00 in0.0 mm 0.04 in1.0 mm
03:45 PM 52.8°F11.6°C 49.6°F9.8°C 89% 3.5 mph ESE5.6 kmh ESE 9.2 mph14.8 kmh 29.88 in1011.9 mb - 0.00 in0.0 mm 0.04 in1.0 mm
03:50 PM 52.8°F11.6°C 49.3°F9.6°C 88% 4.6 mph E7.4 kmh E 8.1 mph13.0 kmh 29.88 in1011.9 mb - 0.00 in0.0 mm 0.04 in1.0 mm
03:55 PM 52.8°F11.6°C 49.3°F9.6°C 88% 4.6 mph E7.4 kmh E 5.8 mph9.3 kmh 29.88 in1011.9 mb - 0.00 in0.0 mm 0.04 in1.0 mm
04:00 PM 52.8°F11.6°C 49.3°F9.6°C 88% 4.6 mph E7.4 kmh E 6.9 mph11.1 kmh 29.88 in1011.9 mb - 0.00 in0.0 mm 0.04 in1.0 mm
04:10 PM 52.7°F11.5°C 49.5°F9.7°C 89% 3.5 mph E5.6 kmh E 6.9 mph11.1 kmh 29.87 in1011.5 mb - 0.00 in0.0 mm 0.04 in1.0 mm
04:15 PM 52.8°F11.6°C 49.6°F9.8°C 89% 2.3 mph ESE3.7 kmh ESE 4.6 mph7.4 kmh 29.88 in1011.9 mb - 0.00 in0.0 mm 0.04 in1.0 mm
04:20 PM 52.7°F11.5°C 49.9°F9.9°C 90% 2.3 mph E3.7 kmh E 3.5 mph5.6 kmh 29.87 in1011.5 mb - 0.00 in0.0 mm 0.04 in1.0 mm
04:25 PM 52.6°F11.4°C 49.4°F9.7°C 89% 4.6 mph E7.4 kmh E 8.1 mph13.0 kmh 29.87 in1011.5 mb - 0.00 in0.0 mm 0.04 in1.0 mm
04:30 PM 52.5°F11.4°C 49.7°F9.8°C 90% 5.8 mph ENE9.3 kmh ENE 9.2 mph14.8 kmh 29.87 in1011.5 mb - 0.00 in0.0 mm 0.04 in1.0 mm
04:35 PM 52.6°F11.4°C 49.4°F9.7°C 89% 5.8 mph E9.3 kmh E 9.2 mph14.8 kmh 29.87 in1011.5 mb - 0.00 in0.0 mm 0.04 in1.0 mm
04:40 PM 52.7°F11.5°C 49.6°F9.8°C 89% 4.6 mph ESE7.4 kmh ESE 4.6 mph7.4 kmh 29.87 in1011.5 mb - 0.00 in0.0 mm 0.04 in1.0 mm
04:45 PM 52.9°F11.6°C 49.7°F9.8°C 89% 3.5 mph E5.6 kmh E 8.1 mph13.0 kmh 29.86 in1011.2 mb - 0.00 in0.0 mm 0.04 in1.0 mm
04:50 PM 53.0°F11.7°C 49.6°F9.8°C 88% 4.6 mph E7.4 kmh E 9.2 mph14.8 kmh 29.86 in1011.2 mb - 0.00 in0.0 mm 0.04 in1.0 mm
04:55 PM 53.1°F11.7°C 49.7°F9.8°C 88% 4.6 mph E7.4 kmh E 11.5 mph18.5 kmh 29.86 in1011.2 mb - 0.00 in0.0 mm 0.04 in1.0 mm
05:00 PM 53.2°F11.8°C 49.4°F9.7°C 87% 9.2 mph ENE14.8 kmh ENE 11.5 mph18.5 kmh 29.86 in1011.2 mb - 0.00 in0.0 mm 0.04 in1.0 mm
05:10 PM 52.9°F11.6°C 49.2°F9.6°C 87% 5.8 mph E9.3 kmh E 10.4 mph16.7 kmh 29.86 in1011.2 mb - 0.00 in0.0 mm 0.04 in1.0 mm
05:15 PM 52.8°F11.6°C 49.0°F9.4°C 87% 3.5 mph E5.6 kmh E 10.4 mph16.7 kmh 29.86 in1011.2 mb - 0.00 in0.0 mm 0.04 in1.0 mm
05:20 PM 52.7°F11.5°C 49.2°F9.6°C 88% 5.8 mph E9.3 kmh E 11.5 mph18.5 kmh 29.86 in1011.2 mb - 0.00 in0.0 mm 0.04 in1.0 mm
05:25 PM 52.6°F11.4°C 49.1°F9.5°C 88% 6.9 mph ENE11.1 kmh ENE 9.2 mph14.8 kmh 29.86 in1011.2 mb - 0.00 in0.0 mm 0.04 in1.0 mm
05:30 PM 52.5°F11.4°C 49.4°F9.7°C 89% 6.9 mph E11.1 kmh E 11.5 mph18.5 kmh 29.86 in1011.2 mb - 0.00 in0.0 mm 0.04 in1.0 mm
05:35 PM 52.5°F11.4°C 49.4°F9.7°C 89% 5.8 mph E9.3 kmh E 9.2 mph14.8 kmh 29.86 in1011.2 mb - 0.00 in0.0 mm 0.04 in1.0 mm
05:40 PM 52.5°F11.4°C 49.4°F9.7°C 89% 3.5 mph E5.6 kmh E 4.6 mph7.4 kmh 29.86 in1011.2 mb - 0.00 in0.0 mm 0.04 in1.0 mm
05:45 PM 52.5°F11.4°C 49.4°F9.7°C 89% 3.5 mph E5.6 kmh E 4.6 mph7.4 kmh 29.86 in1011.2 mb - 0.00 in0.0 mm 0.04 in1.0 mm
05:50 PM 52.4°F11.3°C 49.0°F9.4°C 88% 4.6 mph E7.4 kmh E 4.6 mph7.4 kmh 29.86 in1011.2 mb - 0.00 in0.0 mm 0.04 in1.0 mm
05:55 PM 52.4°F11.3°C 49.0°F9.4°C 88% 3.5 mph ESE5.6 kmh ESE 9.2 mph14.8 kmh 29.86 in1011.2 mb - 0.00 in0.0 mm 0.04 in1.0 mm
06:00 PM 52.4°F11.3°C 48.9°F9.4°C 88% 2.3 mph ESE3.7 kmh ESE 5.8 mph9.3 kmh 29.86 in1011.2 mb - 0.00 in0.0 mm 0.04 in1.0 mm
06:10 PM 52.6°F11.4°C 49.1°F9.5°C 88% 4.6 mph E7.4 kmh E 5.8 mph9.3 kmh 29.85 in1010.8 mb - 0.00 in0.0 mm 0.04 in1.0 mm
06:15 PM 52.5°F11.4°C 49.1°F9.5°C 88% 3.5 mph E5.6 kmh E 6.9 mph11.1 kmh 29.85 in1010.8 mb - 0.00 in0.0 mm 0.04 in1.0 mm
06:20 PM 52.5°F11.4°C 49.1°F9.5°C 88% 4.6 mph E7.4 kmh E 8.1 mph13.0 kmh 29.85 in1010.8 mb - 0.00 in0.0 mm 0.04 in1.0 mm
06:25 PM 52.4°F11.3°C 48.7°F9.3°C 87% 5.8 mph E9.3 kmh E 9.2 mph14.8 kmh 29.85 in1010.8 mb - 0.00 in0.0 mm 0.04 in1.0 mm
06:30 PM 52.4°F11.3°C 48.9°F9.4°C 88% 4.6 mph E7.4 kmh E 9.2 mph14.8 kmh 29.84 in1010.5 mb - 0.00 in0.0 mm 0.04 in1.0 mm
06:35 PM 52.4°F11.3°C 48.9°F9.4°C 88% 5.8 mph ENE9.3 kmh ENE 9.2 mph14.8 kmh 29.84 in1010.5 mb - 0.00 in0.0 mm 0.04 in1.0 mm
06:40 PM 52.4°F11.3°C 48.9°F9.4°C 88% 3.5 mph NE5.6 kmh NE 8.1 mph13.0 kmh 29.84 in1010.5 mb - 0.00 in0.0 mm 0.04 in1.0 mm
06:45 PM 52.4°F11.3°C 48.9°F9.4°C 88% 5.8 mph ENE9.3 kmh ENE 11.5 mph18.5 kmh 29.84 in1010.5 mb - 0.00 in0.0 mm 0.04 in1.0 mm
06:50 PM 52.3°F11.3°C 48.9°F9.4°C 88% 3.5 mph ENE5.6 kmh ENE 4.6 mph7.4 kmh 29.84 in1010.5 mb - 0.00 in0.0 mm 0.04 in1.0 mm
06:55 PM 52.2°F11.2°C 48.8°F9.3°C 88% 4.6 mph E7.4 kmh E 8.1 mph13.0 kmh 29.84 in1010.5 mb - 0.00 in0.0 mm 0.04 in1.0 mm
07:00 PM 52.2°F11.2°C 48.8°F9.3°C 88% 8.1 mph E13.0 kmh E 10.4 mph16.7 kmh 29.84 in1010.5 mb - 0.00 in0.0 mm 0.04 in1.0 mm
07:10 PM 52.0°F11.1°C 48.6°F9.2°C 88% 5.8 mph ENE9.3 kmh ENE 9.2 mph14.8 kmh 29.84 in1010.5 mb - 0.00 in0.0 mm 0.04 in1.0 mm
07:15 PM 51.9°F11.1°C 48.5°F9.2°C 88% 6.9 mph E11.1 kmh E 9.2 mph14.8 kmh 29.84 in1010.5 mb - 0.00 in0.0 mm 0.04 in1.0 mm
07:20 PM 51.9°F11.1°C 48.5°F9.2°C 88% 5.8 mph E9.3 kmh E 11.5 mph18.5 kmh 29.84 in1010.5 mb - 0.00 in0.0 mm 0.04 in1.0 mm
07:25 PM 51.9°F11.1°C 48.8°F9.3°C 89% 6.9 mph E11.1 kmh E 12.7 mph20.4 kmh 29.84 in1010.5 mb - 0.00 in0.0 mm 0.04 in1.0 mm
07:30 PM 51.8°F11.0°C 48.7°F9.3°C 89% 6.9 mph ENE11.1 kmh ENE 11.5 mph18.5 kmh 29.84 in1010.5 mb - 0.00 in0.0 mm 0.04 in1.0 mm
07:35 PM 51.8°F11.0°C 48.3°F9.1°C 88% 5.8 mph ENE9.3 kmh ENE 10.4 mph16.7 kmh 29.84 in1010.5 mb - 0.00 in0.0 mm 0.04 in1.0 mm
07:40 PM 51.7°F10.9°C 48.6°F9.2°C 89% 4.6 mph ENE7.4 kmh ENE 8.1 mph13.0 kmh 29.84 in1010.5 mb - 0.00 in0.0 mm 0.04 in1.0 mm
07:45 PM 51.6°F10.9°C 48.5°F9.2°C 89% 6.9 mph ENE11.1 kmh ENE 10.4 mph16.7 kmh 29.84 in1010.5 mb - 0.00 in0.0 mm 0.04 in1.0 mm
07:50 PM 51.5°F10.8°C 48.4°F9.1°C 89% 4.6 mph ENE7.4 kmh ENE 4.6 mph7.4 kmh 29.84 in1010.5 mb - 0.00 in0.0 mm 0.04 in1.0 mm
07:55 PM 51.4°F10.8°C 48.2°F9.0°C 89% 5.8 mph E9.3 kmh E 6.9 mph11.1 kmh 29.85 in1010.8 mb - 0.00 in0.0 mm 0.04 in1.0 mm
08:00 PM 51.3°F10.7°C 48.1°F8.9°C 89% 5.8 mph E9.3 kmh E 8.1 mph13.0 kmh 29.84 in1010.5 mb - 0.00 in0.0 mm 0.04 in1.0 mm
08:10 PM 51.2°F10.7°C 48.3°F9.1°C 90% 3.5 mph E5.6 kmh E 6.9 mph11.1 kmh 29.85 in1010.8 mb - 0.00 in0.0 mm 0.04 in1.0 mm
08:15 PM 51.1°F10.6°C 48.3°F9.1°C 90% 3.5 mph E5.6 kmh E 8.1 mph13.0 kmh 29.85 in1010.8 mb - 0.00 in0.0 mm 0.04 in1.0 mm
08:20 PM 51.0°F10.6°C 48.2°F9.0°C 90% 4.6 mph ESE7.4 kmh ESE 6.9 mph11.1 kmh 29.85 in1010.8 mb - 0.00 in0.0 mm 0.04 in1.0 mm
08:25 PM 51.0°F10.6°C 48.2°F9.0°C 90% 4.6 mph E7.4 kmh E 8.1 mph13.0 kmh 29.85 in1010.8 mb - 0.00 in0.0 mm 0.04 in1.0 mm
08:30 PM 50.9°F10.5°C 48.1°F8.9°C 90% 4.6 mph E7.4 kmh E 6.9 mph11.1 kmh 29.85 in1010.8 mb - 0.00 in0.0 mm 0.04 in1.0 mm
08:35 PM 50.9°F10.5°C 48.0°F8.9°C 90% 4.6 mph E7.4 kmh E 6.9 mph11.1 kmh 29.85 in1010.8 mb - 0.00 in0.0 mm 0.04 in1.0 mm
08:40 PM 50.9°F10.5°C 48.0°F8.9°C 90% 2.3 mph E3.7 kmh E 3.5 mph5.6 kmh 29.85 in1010.8 mb - 0.00 in0.0 mm 0.04 in1.0 mm
08:45 PM 50.8°F10.4°C 48.0°F8.9°C 90% 2.3 mph E3.7 kmh E 3.5 mph5.6 kmh 29.85 in1010.8 mb - 0.00 in0.0 mm 0.04 in1.0 mm
08:50 PM 50.8°F10.4°C 48.3°F9.1°C 91% 2.3 mph E3.7 kmh E 3.5 mph5.6 kmh 29.85 in1010.8 mb - 0.00 in0.0 mm 0.04 in1.0 mm
08:55 PM 50.8°F10.4°C 48.2°F9.0°C 91% 5.8 mph E9.3 kmh E 8.1 mph13.0 kmh 29.85 in1010.8 mb - 0.00 in0.0 mm 0.04 in1.0 mm
09:00 PM 50.7°F10.4°C 48.1°F8.9°C 91% 3.5 mph E5.6 kmh E 5.8 mph9.3 kmh 29.85 in1010.8 mb - 0.00 in0.0 mm 0.04 in1.0 mm
09:10 PM 50.6°F10.3°C 48.1°F8.9°C 91% 3.5 mph E5.6 kmh E 6.9 mph11.1 kmh 29.85 in1010.8 mb - 0.00 in0.0 mm 0.04 in1.0 mm
09:15 PM 50.6°F10.3°C 48.1°F8.9°C 91% 3.5 mph ENE5.6 kmh ENE 6.9 mph11.1 kmh 29.85 in1010.8 mb - 0.00 in0.0 mm 0.04 in1.0 mm
09:20 PM 50.5°F10.3°C 48.0°F8.9°C 91% 2.3 mph E3.7 kmh E 3.5 mph5.6 kmh 29.85 in1010.8 mb - 0.00 in0.0 mm 0.04 in1.0 mm
09:25 PM 50.5°F10.3°C 48.0°F8.9°C 91% 2.3 mph E3.7 kmh E 3.5 mph5.6 kmh 29.85 in1010.8 mb - 0.00 in0.0 mm 0.04 in1.0 mm
09:30 PM 50.5°F10.3°C 48.0°F8.9°C 91% 2.3 mph E3.7 kmh E 3.5 mph5.6 kmh 29.85 in1010.8 mb - 0.00 in0.0 mm 0.04 in1.0 mm
09:35 PM 50.5°F10.3°C 48.3°F9.1°C 92% 3.5 mph E5.6 kmh E 4.6 mph7.4 kmh 29.84 in1010.5 mb - 0.00 in0.0 mm 0.04 in1.0 mm
09:40 PM 50.5°F10.3°C 48.3°F9.1°C 92% 3.5 mph ESE5.6 kmh ESE 4.6 mph7.4 kmh 29.85 in1010.8 mb - 0.00 in0.0 mm 0.04 in1.0 mm
09:45 PM 50.5°F10.3°C 48.3°F9.1°C 92% 1.2 mph E1.9 kmh E 3.5 mph5.6 kmh 29.84 in1010.5 mb - 0.00 in0.0 mm 0.04 in1.0 mm
09:50 PM 50.4°F10.2°C 48.2°F9.0°C 92% 3.5 mph ESE5.6 kmh ESE 4.6 mph7.4 kmh 29.84 in1010.5 mb - 0.00 in0.0 mm 0.04 in1.0 mm
09:55 PM 50.4°F10.2°C 48.1°F8.9°C 92% 2.3 mph E3.7 kmh E 4.6 mph7.4 kmh 29.84 in1010.5 mb - 0.00 in0.0 mm 0.04 in1.0 mm
10:00 PM 50.4°F10.2°C 48.2°F9.0°C 92% 3.5 mph E5.6 kmh E 8.1 mph13.0 kmh 29.84 in1010.5 mb - 0.00 in0.0 mm 0.04 in1.0 mm
10:10 PM 50.4°F10.2°C 48.2°F9.0°C 92% 3.5 mph ESE5.6 kmh ESE 5.8 mph9.3 kmh 29.84 in1010.5 mb - 0.00 in0.0 mm 0.04 in1.0 mm
10:15 PM 50.4°F10.2°C 48.2°F9.0°C 92% 2.3 mph E3.7 kmh E 6.9 mph11.1 kmh 29.84 in1010.5 mb - 0.00 in0.0 mm 0.04 in1.0 mm
10:20 PM 50.4°F10.2°C 48.2°F9.0°C 92% 5.8 mph E9.3 kmh E 8.1 mph13.0 kmh 29.84 in1010.5 mb - 0.00 in0.0 mm 0.04 in1.0 mm
10:25 PM 50.4°F10.2°C 48.2°F9.0°C 92% 5.8 mph E9.3 kmh E 6.9 mph11.1 kmh 29.84 in1010.5 mb - 0.00 in0.0 mm 0.04 in1.0 mm
10:30 PM 50.4°F10.2°C 48.1°F8.9°C 92% 4.6 mph E7.4 kmh E 9.2 mph14.8 kmh 29.84 in1010.5 mb - 0.00 in0.0 mm 0.04 in1.0 mm
10:35 PM 50.3°F10.2°C 48.1°F8.9°C 92% 4.6 mph E7.4 kmh E 6.9 mph11.1 kmh 29.84 in1010.5 mb - 0.00 in0.0 mm 0.04 in1.0 mm
10:40 PM 50.3°F10.2°C 48.0°F8.9°C 92% 3.5 mph SE5.6 kmh SE 4.6 mph7.4 kmh 29.85 in1010.8 mb - 0.00 in0.0 mm 0.04 in1.0 mm
10:45 PM 50.3°F10.2°C 48.1°F8.9°C 92% 3.5 mph E5.6 kmh E 4.6 mph7.4 kmh 29.84 in1010.5 mb - 0.00 in0.0 mm 0.04 in1.0 mm
10:50 PM 50.3°F10.2°C 48.1°F8.9°C 92% 5.8 mph E9.3 kmh E 10.4 mph16.7 kmh 29.84 in1010.5 mb - 0.00 in0.0 mm 0.04 in1.0 mm
10:55 PM 50.2°F10.1°C 48.0°F8.9°C 92% 4.6 mph SE7.4 kmh SE 10.4 mph16.7 kmh 29.84 in1010.5 mb - 0.00 in0.0 mm 0.04 in1.0 mm
11:00 PM 50.2°F10.1°C 48.0°F8.9°C 92% 3.5 mph ESE5.6 kmh ESE 3.5 mph5.6 kmh 29.84 in1010.5 mb - 0.00 in0.0 mm 0.49 in12.4 mm
11:10 PM 50.0°F10.0°C 47.8°F8.8°C 92% 4.6 mph E7.4 kmh E 8.1 mph13.0 kmh 29.84 in1010.5 mb - 0.00 in0.0 mm 0.49 in12.4 mm
11:15 PM 49.9°F9.9°C 48.0°F8.9°C 93% 4.6 mph ESE7.4 kmh ESE 12.7 mph20.4 kmh 29.84 in1010.5 mb - 0.00 in0.0 mm 0.49 in12.4 mm
11:20 PM 49.8°F9.9°C 47.6°F8.7°C 92% 6.9 mph ESE11.1 kmh ESE 11.5 mph18.5 kmh 29.84 in1010.5 mb - 0.00 in0.0 mm 0.49 in12.4 mm
11:25 PM 49.8°F9.9°C 47.6°F8.7°C 92% 5.8 mph E9.3 kmh E 10.4 mph16.7 kmh 29.84 in1010.5 mb - 0.00 in0.0 mm 0.49 in12.4 mm
11:30 PM 49.7°F9.8°C 47.8°F8.8°C 93% 5.8 mph E9.3 kmh E 9.2 mph14.8 kmh 29.84 in1010.5 mb - 0.00 in0.0 mm 0.49 in12.4 mm
11:35 PM 49.8°F9.9°C 47.9°F8.8°C 93% 3.5 mph E5.6 kmh E 5.8 mph9.3 kmh 29.84 in1010.5 mb - 0.00 in0.0 mm 0.49 in12.4 mm
11:40 PM 49.7°F9.8°C 47.8°F8.8°C 93% 4.6 mph E7.4 kmh E 5.8 mph9.3 kmh 29.84 in1010.5 mb - 0.00 in0.0 mm 0.49 in12.4 mm
11:45 PM 49.7°F9.8°C 47.8°F8.8°C 93% 4.6 mph E7.4 kmh E 9.2 mph14.8 kmh 29.84 in1010.5 mb - 0.00 in0.0 mm 0.49 in12.4 mm
11:50 PM 49.7°F9.8°C 47.8°F8.8°C 93% 2.3 mph E3.7 kmh E 3.5 mph5.6 kmh 29.84 in1010.5 mb - 0.00 in0.0 mm 0.49 in12.4 mm
11:55 PM 49.7°F9.8°C 47.8°F8.8°C 93% 4.6 mph E7.4 kmh E 9.2 mph14.8 kmh 29.84 in1010.5 mb - 0.00 in0.0 mm 0.49 in12.4 mm